sensor_id;sensor_type;location;lat;lon;timestamp;P1;durP1;ratioP1;P2;durP2;ratioP2
11962;SDS011;62678;52.130;5.584;2023-07-31T00:02:01;3.97;;;3.17;;
11962;SDS011;62678;52.130;5.584;2023-07-31T00:04:28;4.35;;;3.30;;
11962;SDS011;62678;52.130;5.584;2023-07-31T00:06:57;4.55;;;3.50;;
11962;SDS011;62678;52.130;5.584;2023-07-31T00:09:24;4.70;;;3.05;;
11962;SDS011;62678;52.130;5.584;2023-07-31T00:11:51;3.30;;;3.00;;
11962;SDS011;62678;52.130;5.584;2023-07-31T00:14:18;4.05;;;2.97;;
11962;SDS011;62678;52.130;5.584;2023-07-31T00:16:45;5.68;;;3.83;;
11962;SDS011;62678;52.130;5.584;2023-07-31T00:19:12;5.00;;;3.60;;
11962;SDS011;62678;52.130;5.584;2023-07-31T00:21:41;3.78;;;3.33;;
11962;SDS011;62678;52.130;5.584;2023-07-31T00:24:09;4.00;;;3.40;;
11962;SDS011;62678;52.130;5.584;2023-07-31T00:26:36;4.63;;;3.28;;
11962;SDS011;62678;52.130;5.584;2023-07-31T00:29:03;3.92;;;3.40;;
11962;SDS011;62678;52.130;5.584;2023-07-31T00:31:30;6.15;;;3.80;;
11962;SDS011;62678;52.130;5.584;2023-07-31T00:33:57;3.83;;;3.33;;
11962;SDS011;62678;52.130;5.584;2023-07-31T00:36:24;5.65;;;3.55;;
11962;SDS011;62678;52.130;5.584;2023-07-31T00:38:52;5.03;;;3.70;;
11962;SDS011;62678;52.130;5.584;2023-07-31T00:41:20;6.13;;;4.35;;
11962;SDS011;62678;52.130;5.584;2023-07-31T00:43:47;5.88;;;5.05;;
11962;SDS011;62678;52.130;5.584;2023-07-31T00:46:14;11.43;;;6.47;;
11962;SDS011;62678;52.130;5.584;2023-07-31T00:48:41;13.82;;;7.43;;
11962;SDS011;62678;52.130;5.584;2023-07-31T00:51:09;13.88;;;8.02;;
11962;SDS011;62678;52.130;5.584;2023-07-31T00:53:36;22.48;;;10.38;;
11962;SDS011;62678;52.130;5.584;2023-07-31T00:56:04;22.17;;;10.50;;
11962;SDS011;62678;52.130;5.584;2023-07-31T00:58:32;32.42;;;12.10;;
11962;SDS011;62678;52.130;5.584;2023-07-31T01:00:59;32.10;;;12.63;;
11962;SDS011;62678;52.130;5.584;2023-07-31T01:03:26;32.10;;;12.60;;
11962;SDS011;62678;52.130;5.584;2023-07-31T01:05:56;34.35;;;13.77;;
11962;SDS011;62678;52.130;5.584;2023-07-31T01:08:36;42.47;;;14.68;;
11962;SDS011;62678;52.130;5.584;2023-07-31T01:11:10;44.83;;;13.32;;
11962;SDS011;62678;52.130;5.584;2023-07-31T01:13:45;45.30;;;13.38;;
11962;SDS011;62678;52.130;5.584;2023-07-31T01:16:12;54.95;;;13.35;;
11962;SDS011;62678;52.130;5.584;2023-07-31T01:18:39;40.28;;;13.18;;
11962;SDS011;62678;52.130;5.584;2023-07-31T01:21:17;53.78;;;13.40;;
11962;SDS011;62678;52.130;5.584;2023-07-31T01:26:53;49.67;;;13.07;;
11962;SDS011;62678;52.130;5.584;2023-07-31T01:29:25;51.55;;;13.02;;
11962;SDS011;62678;52.130;5.584;2023-07-31T01:32:01;47.10;;;12.50;;
11962;SDS011;62678;52.130;5.584;2023-07-31T01:34:29;48.17;;;12.82;;
11962;SDS011;62678;52.130;5.584;2023-07-31T01:36:57;49.80;;;13.25;;
11962;SDS011;62678;52.130;5.584;2023-07-31T01:39:24;37.63;;;11.30;;
11962;SDS011;62678;52.130;5.584;2023-07-31T01:41:52;34.80;;;11.45;;
11962;SDS011;62678;52.130;5.584;2023-07-31T01:44:19;38.33;;;11.93;;
11962;SDS011;62678;52.130;5.584;2023-07-31T01:46:46;50.17;;;12.68;;
11962;SDS011;62678;52.130;5.584;2023-07-31T01:49:13;43.70;;;12.40;;
11962;SDS011;62678;52.130;5.584;2023-07-31T01:51:40;43.95;;;12.70;;
11962;SDS011;62678;52.130;5.584;2023-07-31T01:54:07;46.97;;;13.45;;
11962;SDS011;62678;52.130;5.584;2023-07-31T01:56:34;42.55;;;13.27;;
11962;SDS011;62678;52.130;5.584;2023-07-31T01:59:02;47.55;;;13.38;;
11962;SDS011;62678;52.130;5.584;2023-07-31T02:01:29;42.13;;;13.55;;
11962;SDS011;62678;52.130;5.584;2023-07-31T02:03:56;45.65;;;13.45;;
11962;SDS011;62678;52.130;5.584;2023-07-31T02:06:23;42.50;;;13.32;;
11962;SDS011;62678;52.130;5.584;2023-07-31T02:08:50;47.10;;;14.10;;
11962;SDS011;62678;52.130;5.584;2023-07-31T02:11:17;41.67;;;12.70;;
11962;SDS011;62678;52.130;5.584;2023-07-31T02:13:44;39.65;;;12.90;;
11962;SDS011;62678;52.130;5.584;2023-07-31T02:16:13;39.17;;;12.50;;
11962;SDS011;62678;52.130;5.584;2023-07-31T02:18:40;37.25;;;11.82;;
11962;SDS011;62678;52.130;5.584;2023-07-31T02:21:07;34.92;;;11.57;;
11962;SDS011;62678;52.130;5.584;2023-07-31T02:23:34;33.38;;;11.60;;
11962;SDS011;62678;52.130;5.584;2023-07-31T02:26:00;32.72;;;10.75;;
11962;SDS011;62678;52.130;5.584;2023-07-31T02:28:28;29.73;;;9.88;;
11962;SDS011;62678;52.130;5.584;2023-07-31T02:30:55;25.95;;;9.98;;
11962;SDS011;62678;52.130;5.584;2023-07-31T02:33:23;29.30;;;10.98;;
11962;SDS011;62678;52.130;5.584;2023-07-31T02:35:52;28.08;;;11.13;;
11962;SDS011;62678;52.130;5.584;2023-07-31T02:38:19;30.48;;;10.85;;
11962;SDS011;62678;52.130;5.584;2023-07-31T02:40:46;28.95;;;11.07;;
11962;SDS011;62678;52.130;5.584;2023-07-31T02:43:13;31.13;;;11.13;;
11962;SDS011;62678;52.130;5.584;2023-07-31T02:45:40;31.85;;;9.95;;
11962;SDS011;62678;52.130;5.584;2023-07-31T02:48:07;34.83;;;10.30;;
11962;SDS011;62678;52.130;5.584;2023-07-31T02:50:35;29.30;;;9.57;;
11962;SDS011;62678;52.130;5.584;2023-07-31T02:53:03;31.73;;;10.35;;
11962;SDS011;62678;52.130;5.584;2023-07-31T02:55:30;28.90;;;10.65;;
11962;SDS011;62678;52.130;5.584;2023-07-31T02:57:57;33.28;;;10.73;;
11962;SDS011;62678;52.130;5.584;2023-07-31T03:00:24;33.90;;;11.20;;
11962;SDS011;62678;52.130;5.584;2023-07-31T03:02:50;29.15;;;10.32;;
11962;SDS011;62678;52.130;5.584;2023-07-31T03:05:17;34.30;;;11.00;;
11962;SDS011;62678;52.130;5.584;2023-07-31T03:07:46;38.25;;;10.35;;
11962;SDS011;62678;52.130;5.584;2023-07-31T03:10:12;29.05;;;9.82;;
11962;SDS011;62678;52.130;5.584;2023-07-31T03:12:40;33.53;;;10.65;;
11962;SDS011;62678;52.130;5.584;2023-07-31T03:15:07;32.67;;;10.63;;
11962;SDS011;62678;52.130;5.584;2023-07-31T03:17:35;35.40;;;11.07;;
11962;SDS011;62678;52.130;5.584;2023-07-31T03:20:02;36.22;;;11.07;;
11962;SDS011;62678;52.130;5.584;2023-07-31T03:22:30;35.40;;;11.32;;
11962;SDS011;62678;52.130;5.584;2023-07-31T03:24:58;44.70;;;14.00;;
11962;SDS011;62678;52.130;5.584;2023-07-31T03:27:25;36.78;;;11.88;;
11962;SDS011;62678;52.130;5.584;2023-07-31T03:29:52;42.53;;;11.98;;
11962;SDS011;62678;52.130;5.584;2023-07-31T03:32:19;37.03;;;12.43;;
11962;SDS011;62678;52.130;5.584;2023-07-31T03:34:46;44.50;;;12.70;;
11962;SDS011;62678;52.130;5.584;2023-07-31T03:37:13;41.17;;;12.45;;
11962;SDS011;62678;52.130;5.584;2023-07-31T03:39:40;48.40;;;12.75;;
11962;SDS011;62678;52.130;5.584;2023-07-31T03:42:08;35.70;;;12.38;;
11962;SDS011;62678;52.130;5.584;2023-07-31T03:44:35;39.30;;;12.50;;
11962;SDS011;62678;52.130;5.584;2023-07-31T03:47:02;39.85;;;11.65;;
11962;SDS011;62678;52.130;5.584;2023-07-31T03:49:30;36.28;;;11.77;;
11962;SDS011;62678;52.130;5.584;2023-07-31T03:51:57;35.95;;;10.77;;
11962;SDS011;62678;52.130;5.584;2023-07-31T03:54:24;36.67;;;12.38;;
11962;SDS011;62678;52.130;5.584;2023-07-31T03:56:51;35.03;;;11.45;;
11962;SDS011;62678;52.130;5.584;2023-07-31T03:59:19;32.42;;;10.95;;
11962;SDS011;62678;52.130;5.584;2023-07-31T04:01:46;35.67;;;11.82;;
11962;SDS011;62678;52.130;5.584;2023-07-31T04:04:13;35.10;;;11.52;;
11962;SDS011;62678;52.130;5.584;2023-07-31T04:06:40;34.97;;;11.07;;
11962;SDS011;62678;52.130;5.584;2023-07-31T04:09:07;37.53;;;10.88;;
11962;SDS011;62678;52.130;5.584;2023-07-31T04:11:34;33.53;;;11.25;;
11962;SDS011;62678;52.130;5.584;2023-07-31T04:14:01;32.17;;;10.57;;
11962;SDS011;62678;52.130;5.584;2023-07-31T04:16:29;32.00;;;11.10;;
11962;SDS011;62678;52.130;5.584;2023-07-31T04:18:56;35.33;;;11.15;;
11962;SDS011;62678;52.130;5.584;2023-07-31T04:21:23;30.52;;;11.15;;
11962;SDS011;62678;52.130;5.584;2023-07-31T04:23:50;33.92;;;11.20;;
11962;SDS011;62678;52.130;5.584;2023-07-31T04:26:20;35.00;;;10.90;;
11962;SDS011;62678;52.130;5.584;2023-07-31T04:28:47;35.38;;;10.50;;
11962;SDS011;62678;52.130;5.584;2023-07-31T04:31:14;38.47;;;11.10;;
11962;SDS011;62678;52.130;5.584;2023-07-31T04:33:43;29.75;;;10.57;;
11962;SDS011;62678;52.130;5.584;2023-07-31T04:36:10;32.75;;;11.27;;
11962;SDS011;62678;52.130;5.584;2023-07-31T04:38:37;32.83;;;11.48;;
11962;SDS011;62678;52.130;5.584;2023-07-31T04:41:04;33.97;;;11.68;;
11962;SDS011;62678;52.130;5.584;2023-07-31T04:43:30;31.80;;;11.18;;
11962;SDS011;62678;52.130;5.584;2023-07-31T04:45:57;35.33;;;11.40;;
11962;SDS011;62678;52.130;5.584;2023-07-31T04:48:24;32.15;;;10.55;;
11962;SDS011;62678;52.130;5.584;2023-07-31T04:50:52;29.33;;;10.88;;
11962;SDS011;62678;52.130;5.584;2023-07-31T04:53:20;30.60;;;10.75;;
11962;SDS011;62678;52.130;5.584;2023-07-31T04:55:47;32.33;;;11.85;;
11962;SDS011;62678;52.130;5.584;2023-07-31T04:58:13;34.83;;;11.80;;
11962;SDS011;62678;52.130;5.584;2023-07-31T05:00:40;33.03;;;11.85;;
11962;SDS011;62678;52.130;5.584;2023-07-31T05:03:07;34.15;;;12.18;;
11962;SDS011;62678;52.130;5.584;2023-07-31T05:05:36;30.75;;;11.80;;
11962;SDS011;62678;52.130;5.584;2023-07-31T05:08:04;29.77;;;11.50;;
11962;SDS011;62678;52.130;5.584;2023-07-31T05:10:31;37.10;;;11.85;;
11962;SDS011;62678;52.130;5.584;2023-07-31T05:12:58;34.70;;;12.35;;
11962;SDS011;62678;52.130;5.584;2023-07-31T05:15:25;38.58;;;12.25;;
11962;SDS011;62678;52.130;5.584;2023-07-31T05:17:52;36.95;;;12.60;;
11962;SDS011;62678;52.130;5.584;2023-07-31T05:20:19;35.92;;;11.75;;
11962;SDS011;62678;52.130;5.584;2023-07-31T05:22:46;33.72;;;11.70;;
11962;SDS011;62678;52.130;5.584;2023-07-31T05:25:15;37.17;;;12.15;;
11962;SDS011;62678;52.130;5.584;2023-07-31T05:27:42;34.80;;;11.80;;
11962;SDS011;62678;52.130;5.584;2023-07-31T05:30:09;32.55;;;11.90;;
11962;SDS011;62678;52.130;5.584;2023-07-31T05:32:36;25.77;;;10.95;;
11962;SDS011;62678;52.130;5.584;2023-07-31T05:35:03;35.50;;;10.85;;
11962;SDS011;62678;52.130;5.584;2023-07-31T05:37:31;30.75;;;10.10;;
11962;SDS011;62678;52.130;5.584;2023-07-31T05:39:58;24.35;;;10.25;;
11962;SDS011;62678;52.130;5.584;2023-07-31T05:42:27;29.08;;;9.40;;
11962;SDS011;62678;52.130;5.584;2023-07-31T05:44:54;21.67;;;8.90;;
11962;SDS011;62678;52.130;5.584;2023-07-31T05:47:21;20.10;;;8.07;;
11962;SDS011;62678;52.130;5.584;2023-07-31T05:49:48;21.00;;;8.30;;
11962;SDS011;62678;52.130;5.584;2023-07-31T05:52:17;17.63;;;7.70;;
11962;SDS011;62678;52.130;5.584;2023-07-31T05:54:44;15.57;;;7.78;;
11962;SDS011;62678;52.130;5.584;2023-07-31T05:57:12;16.85;;;8.52;;
11962;SDS011;62678;52.130;5.584;2023-07-31T05:59:40;17.38;;;9.07;;
11962;SDS011;62678;52.130;5.584;2023-07-31T06:02:07;18.33;;;8.60;;
11962;SDS011;62678;52.130;5.584;2023-07-31T06:04:34;16.98;;;8.82;;
11962;SDS011;62678;52.130;5.584;2023-07-31T06:07:01;16.77;;;8.82;;
11962;SDS011;62678;52.130;5.584;2023-07-31T06:09:28;17.35;;;8.70;;
11962;SDS011;62678;52.130;5.584;2023-07-31T06:11:56;15.80;;;8.85;;
11962;SDS011;62678;52.130;5.584;2023-07-31T06:14:23;16.15;;;9.25;;
11962;SDS011;62678;52.130;5.584;2023-07-31T06:16:51;17.40;;;9.27;;
11962;SDS011;62678;52.130;5.584;2023-07-31T06:19:18;18.25;;;9.32;;
11962;SDS011;62678;52.130;5.584;2023-07-31T06:21:45;17.23;;;9.52;;
11962;SDS011;62678;52.130;5.584;2023-07-31T06:24:12;17.80;;;9.10;;
11962;SDS011;62678;52.130;5.584;2023-07-31T06:26:44;14.98;;;8.75;;
11962;SDS011;62678;52.130;5.584;2023-07-31T06:29:11;14.88;;;8.57;;
11962;SDS011;62678;52.130;5.584;2023-07-31T06:31:38;16.73;;;9.32;;
11962;SDS011;62678;52.130;5.584;2023-07-31T06:34:06;19.15;;;8.88;;
11962;SDS011;62678;52.130;5.584;2023-07-31T06:36:33;20.13;;;8.68;;
11962;SDS011;62678;52.130;5.584;2023-07-31T06:39:00;15.65;;;8.68;;
11962;SDS011;62678;52.130;5.584;2023-07-31T06:41:27;15.55;;;7.72;;
11962;SDS011;62678;52.130;5.584;2023-07-31T06:43:54;14.00;;;7.72;;
11962;SDS011;62678;52.130;5.584;2023-07-31T06:46:21;13.20;;;7.30;;
11962;SDS011;62678;52.130;5.584;2023-07-31T06:48:48;14.82;;;7.53;;
11962;SDS011;62678;52.130;5.584;2023-07-31T06:51:16;12.45;;;6.35;;
11962;SDS011;62678;52.130;5.584;2023-07-31T06:53:43;14.80;;;7.03;;
11962;SDS011;62678;52.130;5.584;2023-07-31T06:56:10;12.60;;;6.18;;
11962;SDS011;62678;52.130;5.584;2023-07-31T06:58:37;12.35;;;6.35;;
11962;SDS011;62678;52.130;5.584;2023-07-31T07:01:04;12.02;;;6.20;;
11962;SDS011;62678;52.130;5.584;2023-07-31T07:03:32;13.38;;;7.00;;
11962;SDS011;62678;52.130;5.584;2023-07-31T07:05:59;12.48;;;6.95;;
11962;SDS011;62678;52.130;5.584;2023-07-31T07:08:27;12.93;;;6.95;;
11962;SDS011;62678;52.130;5.584;2023-07-31T07:10:54;11.23;;;6.30;;
11962;SDS011;62678;52.130;5.584;2023-07-31T07:13:21;9.52;;;5.95;;
11962;SDS011;62678;52.130;5.584;2023-07-31T07:15:48;8.65;;;5.95;;
11962;SDS011;62678;52.130;5.584;2023-07-31T07:18:16;8.48;;;5.78;;
11962;SDS011;62678;52.130;5.584;2023-07-31T07:20:46;9.27;;;5.95;;
11962;SDS011;62678;52.130;5.584;2023-07-31T07:23:13;12.45;;;6.35;;
11962;SDS011;62678;52.130;5.584;2023-07-31T07:25:43;8.68;;;5.55;;
11962;SDS011;62678;52.130;5.584;2023-07-31T07:28:12;7.70;;;5.55;;
11962;SDS011;62678;52.130;5.584;2023-07-31T07:30:40;9.75;;;6.68;;
11962;SDS011;62678;52.130;5.584;2023-07-31T07:33:07;10.15;;;6.28;;
11962;SDS011;62678;52.130;5.584;2023-07-31T07:35:34;10.93;;;6.65;;
11962;SDS011;62678;52.130;5.584;2023-07-31T07:38:02;7.57;;;6.22;;
11962;SDS011;62678;52.130;5.584;2023-07-31T07:40:29;9.30;;;6.68;;
11962;SDS011;62678;52.130;5.584;2023-07-31T07:42:57;9.45;;;6.57;;
11962;SDS011;62678;52.130;5.584;2023-07-31T07:45:25;8.70;;;6.57;;
11962;SDS011;62678;52.130;5.584;2023-07-31T07:47:52;11.48;;;7.55;;
11962;SDS011;62678;52.130;5.584;2023-07-31T07:50:19;11.20;;;7.57;;
11962;SDS011;62678;52.130;5.584;2023-07-31T07:52:46;10.63;;;7.47;;
11962;SDS011;62678;52.130;5.584;2023-07-31T07:55:13;9.35;;;7.05;;
11962;SDS011;62678;52.130;5.584;2023-07-31T07:57:40;9.70;;;7.00;;
11962;SDS011;62678;52.130;5.584;2023-07-31T08:00:11;10.10;;;6.80;;
11962;SDS011;62678;52.130;5.584;2023-07-31T08:02:39;10.85;;;6.95;;
11962;SDS011;62678;52.130;5.584;2023-07-31T08:05:06;8.82;;;7.03;;
11962;SDS011;62678;52.130;5.584;2023-07-31T08:07:34;9.95;;;6.78;;
11962;SDS011;62678;52.130;5.584;2023-07-31T08:10:01;8.18;;;6.82;;
11962;SDS011;62678;52.130;5.584;2023-07-31T08:12:28;7.63;;;6.30;;
11962;SDS011;62678;52.130;5.584;2023-07-31T08:14:56;8.43;;;6.95;;
11962;SDS011;62678;52.130;5.584;2023-07-31T08:17:26;7.05;;;6.00;;
11962;SDS011;62678;52.130;5.584;2023-07-31T08:19:53;9.00;;;6.72;;
11962;SDS011;62678;52.130;5.584;2023-07-31T08:22:23;8.70;;;6.88;;
11962;SDS011;62678;52.130;5.584;2023-07-31T08:24:50;7.82;;;6.75;;
11962;SDS011;62678;52.130;5.584;2023-07-31T08:27:17;8.18;;;7.03;;
11962;SDS011;62678;52.130;5.584;2023-07-31T08:29:45;7.80;;;6.70;;
11962;SDS011;62678;52.130;5.584;2023-07-31T08:32:12;9.20;;;6.97;;
11962;SDS011;62678;52.130;5.584;2023-07-31T08:34:40;6.25;;;5.63;;
11962;SDS011;62678;52.130;5.584;2023-07-31T08:37:08;6.07;;;5.35;;
11962;SDS011;62678;52.130;5.584;2023-07-31T08:39:36;6.07;;;5.20;;
11962;SDS011;62678;52.130;5.584;2023-07-31T08:42:07;6.00;;;5.40;;
11962;SDS011;62678;52.130;5.584;2023-07-31T08:44:34;5.35;;;4.43;;
11962;SDS011;62678;52.130;5.584;2023-07-31T08:47:01;4.97;;;4.35;;
11962;SDS011;62678;52.130;5.584;2023-07-31T08:49:29;4.85;;;4.45;;
11962;SDS011;62678;52.130;5.584;2023-07-31T08:51:59;5.38;;;4.40;;
11962;SDS011;62678;52.130;5.584;2023-07-31T08:54:26;4.47;;;4.10;;
11962;SDS011;62678;52.130;5.584;2023-07-31T08:56:56;5.55;;;4.47;;
11962;SDS011;62678;52.130;5.584;2023-07-31T08:59:25;4.45;;;4.05;;
11962;SDS011;62678;52.130;5.584;2023-07-31T09:01:54;4.55;;;4.10;;
11962;SDS011;62678;52.130;5.584;2023-07-31T09:04:24;4.53;;;4.13;;
11962;SDS011;62678;52.130;5.584;2023-07-31T09:06:52;4.95;;;4.55;;
11962;SDS011;62678;52.130;5.584;2023-07-31T09:09:26;6.13;;;4.53;;
11962;SDS011;62678;52.130;5.584;2023-07-31T09:11:54;5.00;;;4.60;;
11962;SDS011;62678;52.130;5.584;2023-07-31T09:14:22;5.10;;;4.70;;
11962;SDS011;62678;52.130;5.584;2023-07-31T09:16:51;5.28;;;4.78;;
11962;SDS011;62678;52.130;5.584;2023-07-31T09:19:26;5.18;;;4.68;;
11962;SDS011;62678;52.130;5.584;2023-07-31T09:21:54;4.75;;;4.40;;
11962;SDS011;62678;52.130;5.584;2023-07-31T09:24:28;4.95;;;4.55;;
11962;SDS011;62678;52.130;5.584;2023-07-31T09:26:57;4.53;;;4.20;;
11962;SDS011;62678;52.130;5.584;2023-07-31T09:29:25;4.20;;;3.90;;
11962;SDS011;62678;52.130;5.584;2023-07-31T09:31:53;3.78;;;3.53;;
11962;SDS011;62678;52.130;5.584;2023-07-31T09:34:28;4.47;;;4.18;;
11962;SDS011;62678;52.130;5.584;2023-07-31T09:36:57;5.65;;;4.57;;
11962;SDS011;62678;52.130;5.584;2023-07-31T09:39:29;5.18;;;4.78;;
11962;SDS011;62678;52.130;5.584;2023-07-31T09:41:56;6.45;;;5.28;;
11962;SDS011;62678;52.130;5.584;2023-07-31T09:44:36;5.43;;;4.95;;
11962;SDS011;62678;52.130;5.584;2023-07-31T09:47:05;6.03;;;5.53;;
11962;SDS011;62678;52.130;5.584;2023-07-31T09:49:32;6.72;;;6.03;;
11962;SDS011;62678;52.130;5.584;2023-07-31T09:51:59;7.25;;;6.43;;
11962;SDS011;62678;52.130;5.584;2023-07-31T09:54:26;8.25;;;6.72;;
11962;SDS011;62678;52.130;5.584;2023-07-31T09:56:54;7.07;;;5.45;;
11962;SDS011;62678;52.130;5.584;2023-07-31T09:59:24;7.53;;;5.45;;
11962;SDS011;62678;52.130;5.584;2023-07-31T10:01:52;5.30;;;4.80;;
11962;SDS011;62678;52.130;5.584;2023-07-31T10:04:22;4.72;;;4.25;;
11962;SDS011;62678;52.130;5.584;2023-07-31T10:06:54;4.43;;;4.03;;
11962;SDS011;62678;52.130;5.584;2023-07-31T10:09:21;5.07;;;4.07;;
11962;SDS011;62678;52.130;5.584;2023-07-31T10:11:53;5.05;;;4.43;;
11962;SDS011;62678;52.130;5.584;2023-07-31T10:14:26;5.03;;;4.20;;
11962;SDS011;62678;52.130;5.584;2023-07-31T10:17:03;5.88;;;4.75;;
11962;SDS011;62678;52.130;5.584;2023-07-31T10:19:51;5.43;;;4.93;;
11962;SDS011;62678;52.130;5.584;2023-07-31T10:22:19;8.13;;;5.20;;
11962;SDS011;62678;52.130;5.584;2023-07-31T10:24:47;9.30;;;5.90;;
11962;SDS011;62678;52.130;5.584;2023-07-31T10:27:18;6.43;;;5.80;;
11962;SDS011;62678;52.130;5.584;2023-07-31T10:29:45;8.75;;;6.13;;
11962;SDS011;62678;52.130;5.584;2023-07-31T10:32:14;8.38;;;6.50;;
11962;SDS011;62678;52.130;5.584;2023-07-31T10:34:43;7.72;;;6.65;;
11962;SDS011;62678;52.130;5.584;2023-07-31T10:40:02;9.90;;;6.03;;
11962;SDS011;62678;52.130;5.584;2023-07-31T10:42:33;8.63;;;6.88;;
11962;SDS011;62678;52.130;5.584;2023-07-31T10:45:02;8.52;;;6.57;;
11962;SDS011;62678;52.130;5.584;2023-07-31T10:47:30;7.68;;;6.90;;
11962;SDS011;62678;52.130;5.584;2023-07-31T10:50:13;8.27;;;6.85;;
11962;SDS011;62678;52.130;5.584;2023-07-31T10:52:44;10.90;;;6.72;;
11962;SDS011;62678;52.130;5.584;2023-07-31T10:55:16;7.03;;;5.88;;
11962;SDS011;62678;52.130;5.584;2023-07-31T10:57:55;6.53;;;5.93;;
11962;SDS011;62678;52.130;5.584;2023-07-31T11:00:25;7.53;;;5.80;;
11962;SDS011;62678;52.130;5.584;2023-07-31T11:02:58;8.55;;;5.85;;
11962;SDS011;62678;52.130;5.584;2023-07-31T11:08:14;6.57;;;5.80;;
11962;SDS011;62678;52.130;5.584;2023-07-31T11:10:43;6.60;;;4.97;;
11962;SDS011;62678;52.130;5.584;2023-07-31T11:13:12;7.40;;;5.47;;
11962;SDS011;62678;52.130;5.584;2023-07-31T11:15:40;8.57;;;4.82;;
11962;SDS011;62678;52.130;5.584;2023-07-31T11:18:07;5.07;;;4.57;;
11962;SDS011;62678;52.130;5.584;2023-07-31T11:20:36;6.75;;;4.88;;
11962;SDS011;62678;52.130;5.584;2023-07-31T11:23:05;5.35;;;4.95;;
11962;SDS011;62678;52.130;5.584;2023-07-31T11:25:35;6.00;;;4.53;;
11962;SDS011;62678;52.130;5.584;2023-07-31T11:28:04;4.50;;;4.07;;
11962;SDS011;62678;52.130;5.584;2023-07-31T11:30:33;4.50;;;4.10;;
11962;SDS011;62678;52.130;5.584;2023-07-31T11:33:02;4.60;;;4.15;;
11962;SDS011;62678;52.130;5.584;2023-07-31T11:35:31;4.13;;;3.83;;
11962;SDS011;62678;52.130;5.584;2023-07-31T11:37:59;5.70;;;4.05;;
11962;SDS011;62678;52.130;5.584;2023-07-31T11:40:26;4.60;;;4.20;;
11962;SDS011;62678;52.130;5.584;2023-07-31T11:42:57;4.95;;;4.35;;
11962;SDS011;62678;52.130;5.584;2023-07-31T11:45:26;4.68;;;4.28;;
11962;SDS011;62678;52.130;5.584;2023-07-31T11:47:55;5.53;;;5.03;;
11962;SDS011;62678;52.130;5.584;2023-07-31T11:50:23;5.78;;;5.15;;
11962;SDS011;62678;52.130;5.584;2023-07-31T11:52:52;5.97;;;5.20;;
11962;SDS011;62678;52.130;5.584;2023-07-31T11:55:22;7.10;;;5.35;;
11962;SDS011;62678;52.130;5.584;2023-07-31T11:57:49;6.22;;;5.63;;
11962;SDS011;62678;52.130;5.584;2023-07-31T12:00:17;8.88;;;5.85;;
11962;SDS011;62678;52.130;5.584;2023-07-31T12:02:44;6.80;;;6.13;;
11962;SDS011;62678;52.130;5.584;2023-07-31T12:05:13;7.72;;;6.93;;
11962;SDS011;62678;52.130;5.584;2023-07-31T12:07:47;9.75;;;7.80;;
11962;SDS011;62678;52.130;5.584;2023-07-31T12:10:25;8.95;;;7.20;;
11962;SDS011;62678;52.130;5.584;2023-07-31T12:13:01;8.02;;;6.80;;
11962;SDS011;62678;52.130;5.584;2023-07-31T12:15:31;8.25;;;7.35;;
11962;SDS011;62678;52.130;5.584;2023-07-31T12:18:07;8.88;;;7.60;;
11962;SDS011;62678;52.130;5.584;2023-07-31T12:20:39;7.28;;;6.47;;
11962;SDS011;62678;52.130;5.584;2023-07-31T12:23:12;7.03;;;5.72;;
11962;SDS011;62678;52.130;5.584;2023-07-31T12:25:41;6.32;;;4.70;;
11962;SDS011;62678;52.130;5.584;2023-07-31T12:28:08;5.50;;;5.00;;
11962;SDS011;62678;52.130;5.584;2023-07-31T12:30:38;5.20;;;4.70;;
11962;SDS011;62678;52.130;5.584;2023-07-31T12:33:06;6.03;;;4.43;;
11962;SDS011;62678;52.130;5.584;2023-07-31T12:35:40;4.80;;;4.40;;
11962;SDS011;62678;52.130;5.584;2023-07-31T12:38:09;4.68;;;4.00;;
11962;SDS011;62678;52.130;5.584;2023-07-31T12:40:37;3.83;;;3.53;;
11962;SDS011;62678;52.130;5.584;2023-07-31T12:43:07;4.07;;;3.72;;
11962;SDS011;62678;52.130;5.584;2023-07-31T12:45:35;3.28;;;3.03;;
11962;SDS011;62678;52.130;5.584;2023-07-31T12:48:02;4.38;;;3.90;;
11962;SDS011;62678;52.130;5.584;2023-07-31T12:50:29;4.30;;;3.90;;
11962;SDS011;62678;52.130;5.584;2023-07-31T12:52:58;4.10;;;3.80;;
11962;SDS011;62678;52.130;5.584;2023-07-31T12:55:25;4.85;;;4.45;;
11962;SDS011;62678;52.130;5.584;2023-07-31T12:57:52;4.80;;;4.40;;
11962;SDS011;62678;52.130;5.584;2023-07-31T13:00:19;4.78;;;4.38;;
11962;SDS011;62678;52.130;5.584;2023-07-31T13:02:46;5.40;;;4.90;;
11962;SDS011;62678;52.130;5.584;2023-07-31T13:05:14;6.47;;;4.82;;
11962;SDS011;62678;52.130;5.584;2023-07-31T13:07:41;5.45;;;4.78;;
11962;SDS011;62678;52.130;5.584;2023-07-31T13:10:10;5.07;;;4.68;;
11962;SDS011;62678;52.130;5.584;2023-07-31T13:12:37;5.57;;;4.90;;
11962;SDS011;62678;52.130;5.584;2023-07-31T13:15:04;5.30;;;4.80;;
11962;SDS011;62678;52.130;5.584;2023-07-31T13:17:33;6.03;;;5.45;;
11962;SDS011;62678;52.130;5.584;2023-07-31T13:20:00;5.72;;;5.30;;
11962;SDS011;62678;52.130;5.584;2023-07-31T13:22:28;7.10;;;5.40;;
11962;SDS011;62678;52.130;5.584;2023-07-31T13:24:55;7.22;;;5.97;;
11962;SDS011;62678;52.130;5.584;2023-07-31T13:27:24;6.70;;;6.10;;
11962;SDS011;62678;52.130;5.584;2023-07-31T13:29:51;7.43;;;6.43;;
11962;SDS011;62678;52.130;5.584;2023-07-31T13:32:19;6.40;;;5.82;;
11962;SDS011;62678;52.130;5.584;2023-07-31T13:34:47;7.18;;;5.70;;
11962;SDS011;62678;52.130;5.584;2023-07-31T13:37:14;6.28;;;5.68;;
11962;SDS011;62678;52.130;5.584;2023-07-31T13:39:42;5.90;;;5.40;;
11962;SDS011;62678;52.130;5.584;2023-07-31T13:42:09;6.20;;;5.60;;
11962;SDS011;62678;52.130;5.584;2023-07-31T13:44:38;6.30;;;5.70;;
11962;SDS011;62678;52.130;5.584;2023-07-31T13:47:06;6.90;;;6.28;;
11962;SDS011;62678;52.130;5.584;2023-07-31T13:49:34;7.53;;;6.82;;
11962;SDS011;62678;52.130;5.584;2023-07-31T13:52:02;8.68;;;7.65;;
11962;SDS011;62678;52.130;5.584;2023-07-31T13:54:30;8.73;;;7.93;;
11962;SDS011;62678;52.130;5.584;2023-07-31T13:56:57;8.88;;;7.97;;
11962;SDS011;62678;52.130;5.584;2023-07-31T13:59:24;8.32;;;7.53;;
11962;SDS011;62678;52.130;5.584;2023-07-31T14:01:53;8.68;;;7.97;;
11962;SDS011;62678;52.130;5.584;2023-07-31T14:04:19;8.98;;;8.18;;
11962;SDS011;62678;52.130;5.584;2023-07-31T14:06:46;9.88;;;8.98;;
11962;SDS011;62678;52.130;5.584;2023-07-31T14:09:15;10.88;;;9.88;;
11962;SDS011;62678;52.130;5.584;2023-07-31T14:11:43;12.27;;;11.07;;
11962;SDS011;62678;52.130;5.584;2023-07-31T14:14:10;13.05;;;11.65;;
11962;SDS011;62678;52.130;5.584;2023-07-31T14:16:38;12.70;;;11.40;;
11962;SDS011;62678;52.130;5.584;2023-07-31T14:19:07;12.98;;;11.77;;
11962;SDS011;62678;52.130;5.584;2023-07-31T14:21:34;14.18;;;12.77;;
11962;SDS011;62678;52.130;5.584;2023-07-31T14:24:02;15.45;;;13.82;;
11962;SDS011;62678;52.130;5.584;2023-07-31T14:26:29;16.63;;;15.13;;
11962;SDS011;62678;52.130;5.584;2023-07-31T14:28:56;18.08;;;15.40;;
11962;SDS011;62678;52.130;5.584;2023-07-31T14:31:23;19.10;;;14.90;;
11962;SDS011;62678;52.130;5.584;2023-07-31T14:33:50;18.58;;;16.20;;
11962;SDS011;62678;52.130;5.584;2023-07-31T14:36:18;19.13;;;14.82;;
11962;SDS011;62678;52.130;5.584;2023-07-31T14:38:45;16.05;;;13.65;;
11962;SDS011;62678;52.130;5.584;2023-07-31T14:41:12;15.80;;;12.88;;
11962;SDS011;62678;52.130;5.584;2023-07-31T14:43:39;13.98;;;12.52;;
11962;SDS011;62678;52.130;5.584;2023-07-31T14:46:06;14.70;;;12.20;;
11962;SDS011;62678;52.130;5.584;2023-07-31T14:48:33;12.65;;;11.25;;
11962;SDS011;62678;52.130;5.584;2023-07-31T14:51:00;14.32;;;10.98;;